createdAt,value
2023-01-27T00:00:04.666Z,29.80
2023-01-27T00:01:04.293Z,29.80
2023-01-27T00:02:04.255Z,30.60
2023-01-27T00:03:04.663Z,30.60
2023-01-27T00:04:04.725Z,30.60
2023-01-27T00:05:04.054Z,30.60
2023-01-27T00:06:04.844Z,30.60
2023-01-27T00:07:03.788Z,29.70
2023-01-27T00:08:03.611Z,29.70
2023-01-27T00:09:03.916Z,29.70
2023-01-27T00:10:03.993Z,29.70
2023-01-27T00:11:03.626Z,29.70
2023-01-27T00:11:13.876Z,29.70
2023-01-27T00:12:03.010Z,29.20
2023-01-27T00:13:03.481Z,29.20
2023-01-27T00:14:03.362Z,29.20
2023-01-27T00:15:03.105Z,29.20
2023-01-27T00:16:03.404Z,29.20
2023-01-27T00:17:03.675Z,29.40
2023-01-27T00:18:03.807Z,29.40
2023-01-27T00:19:03.534Z,29.40
2023-01-27T00:20:04.100Z,29.40
2023-01-27T00:21:03.244Z,29.40
2023-01-27T00:22:02.873Z,29.90
2023-01-27T00:23:02.830Z,29.90
2023-01-27T00:24:03.266Z,29.90
2023-01-27T00:25:02.609Z,29.90
2023-01-27T00:26:03.171Z,29.90
2023-01-27T00:27:03.241Z,29.70
2023-01-27T00:28:03.415Z,29.70
2023-01-27T00:29:03.419Z,29.70
2023-01-27T00:30:03.766Z,29.70
2023-01-27T00:31:03.902Z,29.70
2023-01-27T00:32:02.798Z,28.60
2023-01-27T00:33:03.120Z,28.60
2023-01-27T00:34:02.755Z,28.60
2023-01-27T00:35:02.858Z,28.60
2023-01-27T00:36:02.782Z,28.60
2023-01-27T00:37:03.138Z,29.30
2023-01-27T00:38:03.543Z,29.30
2023-01-27T00:39:03.641Z,29.30
2023-01-27T00:40:03.145Z,29.30
2023-01-27T00:41:03.115Z,29.30
2023-01-27T00:42:02.600Z,29.00
2023-01-27T00:43:03.142Z,29.00
2023-01-27T00:44:02.546Z,29.00
2023-01-27T00:45:02.567Z,29.00
2023-01-27T00:46:03.088Z,29.00
2023-01-27T00:47:03.356Z,28.60
2023-01-27T00:48:03.324Z,28.60
2023-01-27T00:49:03.266Z,28.60
2023-01-27T00:50:02.952Z,28.60
2023-01-27T00:51:03.077Z,28.60
2023-01-27T00:52:02.855Z,29.00
2023-01-27T00:53:03.036Z,29.00
2023-01-27T00:54:02.537Z,29.00
2023-01-27T00:55:02.813Z,29.00
2023-01-27T00:56:02.638Z,29.00
2023-01-27T00:57:03.207Z,27.60
2023-01-27T00:58:03.143Z,27.60
2023-01-27T00:59:03.515Z,27.60
2023-01-27T01:00:03.469Z,27.60
2023-01-27T01:01:03.507Z,27.60
2023-01-27T01:02:03.132Z,27.40
2023-01-27T01:03:03.108Z,27.40
2023-01-27T01:04:02.694Z,27.40
2023-01-27T01:05:02.640Z,27.40
2023-01-27T01:06:02.764Z,27.40
2023-01-27T01:07:02.976Z,28.20
2023-01-27T01:08:03.056Z,28.20
2023-01-27T01:09:03.325Z,28.20
2023-01-27T01:10:02.676Z,28.20
2023-01-27T01:11:03.085Z,28.20
2023-01-27T01:12:03.306Z,26.80
2023-01-27T01:13:03.034Z,26.80
2023-01-27T01:14:03.083Z,26.80
2023-01-27T01:15:03.127Z,26.80
2023-01-27T01:16:02.989Z,26.80
2023-01-27T01:17:02.534Z,26.90
2023-01-27T01:18:02.602Z,26.90
2023-01-27T01:19:02.333Z,26.90
2023-01-27T01:20:02.756Z,26.90
2023-01-27T01:21:02.974Z,26.90
2023-01-27T01:22:04.893Z,27.60
2023-01-27T01:23:03.551Z,27.60
2023-01-27T01:24:03.398Z,27.60
2023-01-27T01:25:03.422Z,27.60
2023-01-27T01:26:02.962Z,27.60
2023-01-27T01:27:02.224Z,26.80
2023-01-27T01:28:02.636Z,26.80
2023-01-27T01:29:02.196Z,26.80
2023-01-27T01:30:02.264Z,26.80
2023-01-27T01:31:02.733Z,26.80
2023-01-27T01:32:03.002Z,25.70
2023-01-27T01:33:02.765Z,25.70
2023-01-27T01:34:02.897Z,25.70
2023-01-27T01:35:03.148Z,25.70
2023-01-27T01:36:03.297Z,25.70
2023-01-27T01:37:03.321Z,26.10
2023-01-27T01:38:03.158Z,26.10
2023-01-27T01:39:02.920Z,26.10
2023-01-27T01:40:03.019Z,26.10
2023-01-27T01:41:03.145Z,26.10
2023-01-27T01:42:03.393Z,24.50
2023-01-27T01:43:03.178Z,24.50
2023-01-27T01:44:03.055Z,24.50
2023-01-27T01:45:03.560Z,24.50
2023-01-27T01:46:03.393Z,24.50
2023-01-27T01:47:02.732Z,24.10
2023-01-27T01:48:02.805Z,24.10
2023-01-27T01:49:02.755Z,24.10
2023-01-27T01:50:02.483Z,24.10
2023-01-27T01:51:02.247Z,24.10
2023-01-27T01:52:02.794Z,24.40
2023-01-27T01:53:02.912Z,24.40
2023-01-27T01:54:02.663Z,24.40
2023-01-27T01:55:02.497Z,24.40
2023-01-27T01:56:02.874Z,24.40
2023-01-27T01:57:02.468Z,24.90
2023-01-27T01:58:02.282Z,24.90
2023-01-27T01:59:02.481Z,24.90
2023-01-27T02:00:02.405Z,24.90
2023-01-27T02:01:02.242Z,24.90
2023-01-27T02:02:02.958Z,22.50
2023-01-27T02:03:02.796Z,22.50
2023-01-27T02:04:02.529Z,22.50
2023-01-27T02:05:02.495Z,22.50
2023-01-27T02:06:02.680Z,22.50
2023-01-27T02:07:02.659Z,22.50
2023-01-27T02:08:03.155Z,22.50
2023-01-27T02:09:02.780Z,22.50
2023-01-27T02:10:02.953Z,22.50
2023-01-27T02:11:03.102Z,22.50
2023-01-27T02:12:03.084Z,23.40
2023-01-27T02:13:03.256Z,23.40
2023-01-27T02:14:02.642Z,23.40
2023-01-27T02:15:02.845Z,23.40
2023-01-27T02:16:02.670Z,23.40
2023-01-27T02:17:02.853Z,24.30
2023-01-27T02:18:02.948Z,24.30
2023-01-27T02:19:02.835Z,24.30
2023-01-27T02:20:02.728Z,24.30
2023-01-27T02:21:03.258Z,24.30
2023-01-27T02:22:03.661Z,23.30
2023-01-27T02:23:03.121Z,23.30
2023-01-27T02:24:03.096Z,23.30
2023-01-27T02:25:03.343Z,23.30
2023-01-27T02:26:03.494Z,23.30
2023-01-27T02:27:02.660Z,23.40
2023-01-27T02:28:03.151Z,23.40
2023-01-27T02:29:02.528Z,23.40
2023-01-27T02:30:02.925Z,23.40
2023-01-27T02:31:03.114Z,23.40
2023-01-27T02:32:02.524Z,22.10
2023-01-27T02:33:02.981Z,22.10
2023-01-27T02:34:02.761Z,22.10
2023-01-27T02:35:02.607Z,22.10
2023-01-27T02:36:03.186Z,22.10
2023-01-27T02:37:03.146Z,22.00
2023-01-27T02:38:03.055Z,22.00
2023-01-27T02:39:03.047Z,22.00
2023-01-27T02:40:03.443Z,22.00
2023-01-27T02:41:03.297Z,22.00
2023-01-27T02:42:02.719Z,20.70
2023-01-27T02:43:02.744Z,20.70
2023-01-27T02:44:03.043Z,20.70
2023-01-27T02:45:02.603Z,20.70
2023-01-27T02:46:02.946Z,20.70
2023-01-27T02:47:03.346Z,20.90
2023-01-27T02:48:03.473Z,20.90
2023-01-27T02:49:03.126Z,20.90
2023-01-27T02:50:03.215Z,20.90
2023-01-27T02:51:03.151Z,20.90
2023-01-27T02:52:02.493Z,20.70
2023-01-27T02:53:02.105Z,20.70
2023-01-27T02:54:02.412Z,20.70
2023-01-27T02:55:02.354Z,20.70
2023-01-27T02:56:02.090Z,20.70
2023-01-27T02:57:02.658Z,20.60
2023-01-27T02:58:02.281Z,20.60
2023-01-27T02:59:02.756Z,20.60
2023-01-27T03:00:02.550Z,20.60
2023-01-27T03:01:02.469Z,20.60
2023-01-27T03:02:02.968Z,19.00
2023-01-27T03:03:02.358Z,19.00
2023-01-27T03:04:02.919Z,19.00
2023-01-27T03:05:02.562Z,19.00
2023-01-27T03:06:02.383Z,19.00
2023-01-27T03:07:03.423Z,17.60
2023-01-27T03:08:03.037Z,17.60
2023-01-27T03:09:03.067Z,17.60
2023-01-27T03:10:03.178Z,17.60
2023-01-27T03:11:03.269Z,17.60
2023-01-27T03:12:03.568Z,17.60
2023-01-27T03:13:03.520Z,17.60
2023-01-27T03:14:03.365Z,17.60
2023-01-27T03:15:03.165Z,17.60
2023-01-27T03:16:03.593Z,17.60
2023-01-27T03:17:02.959Z,16.80
2023-01-27T03:18:02.878Z,16.80
2023-01-27T03:19:02.461Z,16.80
2023-01-27T03:20:02.556Z,16.80
2023-01-27T03:21:02.793Z,16.80
2023-01-27T03:22:03.308Z,17.00
2023-01-27T03:23:02.730Z,17.00
2023-01-27T03:24:03.123Z,17.00
2023-01-27T03:25:02.864Z,17.00
2023-01-27T03:26:03.297Z,17.00
2023-01-27T03:27:03.298Z,15.60
2023-01-27T03:28:02.934Z,15.60
2023-01-27T03:29:03.040Z,15.60
2023-01-27T03:30:02.976Z,15.60
2023-01-27T03:31:03.417Z,15.60
2023-01-27T03:32:03.378Z,16.10
2023-01-27T03:33:03.365Z,16.10
2023-01-27T03:34:03.327Z,16.10
2023-01-27T03:35:03.431Z,16.10
2023-01-27T03:36:02.964Z,16.10
2023-01-27T03:37:02.845Z,16.80
2023-01-27T03:38:02.609Z,16.80
2023-01-27T03:39:02.915Z,16.80
2023-01-27T03:40:02.551Z,16.80
2023-01-27T03:41:02.478Z,16.80
2023-01-27T03:42:03.547Z,16.30
2023-01-27T03:43:03.046Z,16.30
2023-01-27T03:44:03.304Z,16.30
2023-01-27T03:45:03.440Z,16.30
2023-01-27T03:46:03.640Z,16.30
2023-01-27T03:47:02.378Z,16.00
2023-01-27T03:48:02.543Z,16.00
2023-01-27T03:49:02.446Z,16.00
2023-01-27T03:50:02.703Z,16.00
2023-01-27T03:51:02.620Z,16.00
2023-01-27T03:52:02.745Z,16.20
2023-01-27T03:53:03.550Z,16.20
2023-01-27T03:54:03.255Z,16.20
2023-01-27T03:55:03.022Z,16.20
2023-01-27T03:56:02.627Z,16.20
2023-01-27T03:57:03.012Z,15.70
2023-01-27T03:58:03.009Z,15.70
2023-01-27T03:59:02.689Z,15.70
2023-01-27T04:00:02.715Z,15.70
2023-01-27T04:01:02.791Z,15.70
2023-01-27T04:02:02.613Z,15.20
2023-01-27T04:03:02.637Z,15.20
2023-01-27T04:04:02.508Z,15.20
2023-01-27T04:05:02.792Z,15.20
2023-01-27T04:06:02.460Z,15.20
2023-01-27T04:07:02.486Z,15.70
2023-01-27T04:08:01.878Z,15.70
2023-01-27T04:09:02.465Z,15.70
2023-01-27T04:10:01.972Z,15.70
2023-01-27T04:11:02.280Z,15.70
2023-01-27T04:12:02.188Z,15.20
2023-01-27T04:13:02.469Z,15.20
2023-01-27T04:14:02.297Z,15.20
2023-01-27T04:15:02.136Z,15.20
2023-01-27T04:16:01.963Z,15.20
2023-01-27T04:17:02.109Z,15.20
2023-01-27T04:18:02.457Z,15.20
2023-01-27T04:19:01.934Z,15.20
2023-01-27T04:20:02.471Z,15.20
2023-01-27T04:21:02.384Z,15.20
2023-01-27T04:22:02.122Z,14.60
2023-01-27T04:23:02.174Z,14.60
2023-01-27T04:24:02.713Z,14.60
2023-01-27T04:25:02.408Z,14.60
2023-01-27T04:26:02.578Z,14.60
2023-01-27T04:27:02.256Z,14.00
2023-01-27T04:28:02.212Z,14.00
2023-01-27T04:29:02.683Z,14.00
2023-01-27T04:30:02.847Z,14.00
2023-01-27T04:31:02.424Z,14.00
2023-01-27T04:32:02.071Z,12.70
2023-01-27T04:33:01.883Z,12.70
2023-01-27T04:34:01.858Z,12.70
2023-01-27T04:35:01.942Z,12.70
2023-01-27T04:36:01.894Z,12.70
2023-01-27T04:37:02.689Z,12.10
2023-01-27T04:38:02.294Z,12.10
2023-01-27T04:39:02.806Z,12.10
2023-01-27T04:40:02.678Z,12.10
2023-01-27T04:41:02.487Z,12.10
2023-01-27T04:42:02.198Z,12.30
2023-01-27T04:43:01.638Z,12.30
2023-01-27T04:44:01.597Z,12.30
2023-01-27T04:45:01.680Z,12.30
2023-01-27T04:46:02.138Z,12.30
2023-01-27T04:47:02.746Z,11.70
2023-01-27T04:48:02.331Z,11.70
2023-01-27T04:49:02.836Z,11.70
2023-01-27T04:50:02.891Z,11.70
2023-01-27T04:51:02.598Z,11.70
2023-01-27T04:52:01.975Z,12.90
2023-01-27T04:53:02.063Z,12.90
2023-01-27T04:54:01.903Z,12.90
2023-01-27T04:55:01.807Z,12.90
2023-01-27T04:56:02.277Z,12.90
2023-01-27T04:57:02.219Z,11.40
2023-01-27T04:58:01.991Z,11.40
2023-01-27T04:59:02.415Z,11.40
2023-01-27T05:00:02.222Z,11.40
2023-01-27T05:01:02.232Z,11.40
2023-01-27T05:02:02.786Z,11.70
2023-01-27T05:03:02.744Z,11.70
2023-01-27T05:04:02.635Z,11.70
2023-01-27T05:05:02.998Z,11.70
2023-01-27T05:06:02.432Z,11.70
2023-01-27T05:07:02.946Z,10.80
2023-01-27T05:08:02.850Z,10.80
2023-01-27T05:09:02.861Z,10.80
2023-01-27T05:10:02.983Z,10.80
2023-01-27T05:11:03.053Z,10.80
2023-01-27T05:12:02.662Z,9.80
2023-01-27T05:13:02.382Z,9.80
2023-01-27T05:14:02.792Z,9.80
2023-01-27T05:15:02.209Z,9.80
2023-01-27T05:16:02.329Z,9.80
2023-01-27T05:17:02.570Z,10.20
2023-01-27T05:18:02.724Z,10.20
2023-01-27T05:19:02.927Z,10.20
2023-01-27T05:20:02.517Z,10.20
2023-01-27T05:21:02.276Z,10.20
2023-01-27T05:22:02.957Z,10.40
2023-01-27T05:23:02.390Z,10.40
2023-01-27T05:24:02.961Z,10.40
2023-01-27T05:25:02.548Z,10.40
2023-01-27T05:26:02.496Z,10.40
2023-01-27T05:27:01.868Z,10.40
2023-01-27T05:28:02.465Z,10.40
2023-01-27T05:29:01.985Z,10.40
2023-01-27T05:30:02.495Z,10.40
2023-01-27T05:31:02.441Z,10.80
2023-01-27T05:32:02.406Z,10.80
2023-01-27T05:33:02.313Z,10.80
2023-01-27T05:34:02.702Z,10.80
2023-01-27T05:35:02.578Z,10.80
2023-01-27T05:36:02.425Z,9.30
2023-01-27T05:37:02.897Z,9.30
2023-01-27T05:38:02.707Z,9.30
2023-01-27T05:39:02.695Z,9.30
2023-01-27T05:40:02.527Z,9.30
2023-01-27T05:41:02.576Z,10.00
2023-01-27T05:42:03.172Z,10.00
2023-01-27T05:43:02.936Z,10.00
2023-01-27T05:44:02.918Z,10.00
2023-01-27T05:45:02.723Z,10.00
2023-01-27T05:46:03.218Z,9.20
2023-01-27T05:47:03.211Z,9.20
2023-01-27T05:48:02.800Z,9.20
2023-01-27T05:49:03.238Z,9.20
2023-01-27T05:50:03.035Z,9.20
2023-01-27T05:51:03.226Z,9.00
2023-01-27T05:52:02.388Z,9.00
2023-01-27T05:53:02.686Z,9.00
2023-01-27T05:54:02.662Z,9.00
2023-01-27T05:55:02.367Z,9.00
2023-01-27T05:56:02.583Z,9.80
2023-01-27T05:57:02.953Z,9.80
2023-01-27T05:58:02.917Z,9.80
2023-01-27T05:59:03.053Z,9.80
2023-01-27T06:00:02.928Z,9.80
2023-01-27T06:01:02.471Z,9.60
2023-01-27T06:02:03.710Z,9.60
2023-01-27T06:03:03.563Z,9.60
2023-01-27T06:04:03.496Z,9.60
2023-01-27T06:05:03.317Z,9.60
2023-01-27T06:06:03.168Z,9.60
2023-01-27T06:07:03.732Z,9.60
2023-01-27T06:08:03.268Z,9.60
2023-01-27T06:09:03.764Z,9.60
2023-01-27T06:10:03.222Z,9.60
2023-01-27T06:11:03.257Z,9.70
2023-01-27T06:12:03.229Z,9.70
2023-01-27T06:13:03.124Z,9.70
2023-01-27T06:14:02.825Z,9.70
2023-01-27T06:15:02.715Z,9.70
2023-01-27T06:16:02.994Z,10.40
2023-01-27T06:17:03.049Z,10.40
2023-01-27T06:18:03.143Z,10.40
2023-01-27T06:19:03.110Z,10.40
2023-01-27T06:20:02.977Z,10.40
2023-01-27T06:21:03.431Z,9.80
2023-01-27T06:22:02.938Z,9.80
2023-01-27T06:23:02.894Z,9.80
2023-01-27T06:24:02.800Z,9.80
2023-01-27T06:25:02.983Z,9.80
2023-01-27T06:26:02.780Z,9.40
2023-01-27T06:27:02.819Z,9.40
2023-01-27T06:28:03.249Z,9.40
2023-01-27T06:29:03.077Z,9.40
2023-01-27T06:30:03.006Z,9.40
2023-01-27T06:31:03.324Z,8.70
2023-01-27T06:32:02.838Z,8.70
2023-01-27T06:33:03.384Z,8.70
2023-01-27T06:34:02.538Z,8.70
2023-01-27T06:35:02.456Z,8.70
2023-01-27T06:36:02.761Z,8.90
2023-01-27T06:37:02.438Z,8.90
2023-01-27T06:38:02.941Z,8.90
2023-01-27T06:39:02.635Z,8.90
2023-01-27T06:40:02.523Z,8.90
2023-01-27T06:41:03.044Z,9.40
2023-01-27T06:42:02.745Z,9.40
2023-01-27T06:43:03.056Z,9.40
2023-01-27T06:44:03.125Z,9.40
2023-01-27T06:45:02.747Z,9.40
2023-01-27T06:46:05.510Z,9.00
2023-01-27T06:47:02.301Z,9.00
2023-01-27T06:48:02.264Z,9.00
2023-01-27T06:49:02.163Z,9.00
2023-01-27T06:50:02.055Z,9.00
2023-01-27T06:51:02.545Z,9.20
2023-01-27T06:52:02.778Z,9.20
2023-01-27T06:53:02.778Z,9.20
2023-01-27T06:54:02.806Z,9.20
2023-01-27T06:55:02.690Z,9.20
2023-01-27T06:56:02.761Z,9.80
2023-01-27T06:57:02.377Z,9.80
2023-01-27T06:58:02.207Z,9.80
2023-01-27T06:59:02.674Z,9.80
2023-01-27T07:00:02.564Z,9.80
2023-01-27T07:01:02.451Z,10.20
2023-01-27T07:02:03.798Z,10.20
2023-01-27T07:03:03.378Z,10.20
2023-01-27T07:04:03.215Z,10.20
2023-01-27T07:05:03.479Z,10.20
2023-01-27T07:06:03.331Z,10.60
2023-01-27T07:07:03.035Z,10.60
2023-01-27T07:08:03.201Z,10.60
2023-01-27T07:09:03.184Z,10.60
2023-01-27T07:10:03.162Z,10.60
2023-01-27T07:11:03.013Z,10.70
2023-01-27T07:12:02.617Z,10.70
2023-01-27T07:13:02.420Z,10.70
2023-01-27T07:14:03.446Z,10.70
2023-01-27T07:15:02.396Z,10.70
2023-01-27T07:16:02.983Z,10.30
2023-01-27T07:17:02.931Z,10.30
2023-01-27T07:18:02.813Z,10.30
2023-01-27T07:19:03.138Z,10.30
2023-01-27T07:20:02.761Z,10.30
2023-01-27T07:21:02.675Z,10.90
2023-01-27T07:22:02.578Z,10.90
2023-01-27T07:23:02.343Z,10.90
2023-01-27T07:24:02.836Z,10.90
2023-01-27T07:25:02.687Z,10.90
2023-01-27T07:26:04.277Z,10.70
2023-01-27T07:27:03.272Z,10.70
2023-01-27T07:28:03.521Z,10.70
2023-01-27T07:29:03.437Z,10.70
2023-01-27T07:30:03.566Z,10.70
2023-01-27T07:31:03.056Z,10.40
2023-01-27T07:32:02.724Z,10.40
2023-01-27T07:33:02.824Z,10.40
2023-01-27T07:34:02.847Z,10.40
2023-01-27T07:35:02.957Z,10.40
2023-01-27T07:36:02.905Z,11.00
2023-01-27T07:37:03.410Z,11.00
2023-01-27T07:38:03.456Z,11.00
2023-01-27T07:39:03.361Z,11.00
2023-01-27T07:40:03.183Z,11.00
2023-01-27T07:41:02.909Z,9.90
2023-01-27T07:42:02.652Z,9.90
2023-01-27T07:43:02.264Z,9.90
2023-01-27T07:44:02.402Z,9.90
2023-01-27T07:45:02.299Z,9.90
2023-01-27T07:46:02.289Z,9.90
2023-01-27T07:47:02.959Z,9.90
2023-01-27T07:48:02.770Z,9.90
2023-01-27T07:49:02.644Z,9.90
2023-01-27T07:50:02.572Z,9.90
2023-01-27T07:51:03.060Z,10.40
2023-01-27T07:52:03.344Z,10.40
2023-01-27T07:53:02.904Z,10.40
2023-01-27T07:54:03.366Z,10.40
2023-01-27T07:55:03.229Z,10.40
2023-01-27T07:56:03.424Z,10.50
2023-01-27T07:57:03.360Z,10.50
2023-01-27T07:58:03.646Z,10.50
2023-01-27T07:59:03.659Z,10.50
2023-01-27T08:00:03.401Z,10.50
2023-01-27T08:01:03.507Z,10.40
2023-01-27T08:02:03.140Z,10.40
2023-01-27T08:03:03.075Z,10.40
2023-01-27T08:04:03.196Z,10.40
2023-01-27T08:05:03.006Z,10.40
2023-01-27T08:06:02.503Z,9.80
2023-01-27T08:07:03.661Z,9.80
2023-01-27T08:08:03.341Z,9.80
2023-01-27T08:09:03.256Z,9.80
2023-01-27T08:10:03.012Z,9.80
2023-01-27T08:11:03.662Z,9.30
2023-01-27T08:12:03.057Z,9.30
2023-01-27T08:13:03.014Z,9.30
2023-01-27T08:14:02.780Z,9.30
2023-01-27T08:15:02.764Z,9.30
2023-01-27T08:16:02.698Z,10.80
2023-01-27T08:17:03.351Z,10.80
2023-01-27T08:18:02.723Z,10.80
2023-01-27T08:19:02.725Z,10.80
2023-01-27T08:20:03.274Z,10.80
2023-01-27T08:21:03.174Z,8.70
2023-01-27T08:22:02.865Z,8.70
2023-01-27T08:23:02.647Z,8.70
2023-01-27T08:24:02.846Z,8.70
2023-01-27T08:25:02.739Z,8.70
2023-01-27T08:26:02.614Z,9.50
2023-01-27T08:27:03.179Z,9.50
2023-01-27T08:28:02.829Z,9.50
2023-01-27T08:29:02.844Z,9.50
2023-01-27T08:30:02.833Z,9.50
2023-01-27T08:31:02.835Z,8.60
2023-01-27T08:32:03.465Z,8.60
2023-01-27T08:33:03.003Z,8.60
2023-01-27T08:34:03.293Z,8.60
2023-01-27T08:35:03.257Z,8.60
2023-01-27T08:36:03.266Z,8.70
2023-01-27T08:37:02.934Z,8.70
2023-01-27T08:38:02.658Z,8.70
2023-01-27T08:39:02.609Z,8.70
2023-01-27T08:40:02.445Z,8.70
2023-01-27T08:41:02.719Z,8.80
2023-01-27T08:42:03.231Z,8.80
2023-01-27T08:43:04.889Z,8.80
2023-01-27T08:44:02.921Z,8.80
2023-01-27T08:45:02.847Z,8.80
2023-01-27T08:46:02.852Z,9.00
2023-01-27T08:47:03.336Z,9.00
2023-01-27T08:48:02.987Z,9.00
2023-01-27T08:49:02.712Z,9.00
2023-01-27T08:50:03.022Z,9.00
2023-01-27T08:51:03.121Z,8.40
2023-01-27T08:52:01.975Z,8.40
2023-01-27T08:53:02.585Z,8.40
2023-01-27T08:54:02.320Z,8.40
2023-01-27T08:55:02.206Z,8.40
2023-01-27T08:56:02.112Z,8.70
2023-01-27T08:57:01.956Z,8.70
2023-01-27T08:58:01.944Z,8.70
2023-01-27T08:59:02.592Z,8.70
2023-01-27T09:00:02.357Z,8.70
2023-01-27T09:01:02.276Z,8.90
2023-01-27T09:02:02.256Z,8.90
2023-01-27T09:03:02.442Z,8.90
2023-01-27T09:04:02.358Z,8.90
2023-01-27T09:05:02.282Z,8.90
2023-01-27T09:06:02.676Z,8.80
2023-01-27T09:07:02.623Z,8.80
2023-01-27T09:08:02.946Z,8.80
2023-01-27T09:09:02.942Z,8.80
2023-01-27T09:10:15.116Z,8.80
2023-01-27T09:11:03.138Z,7.80
2023-01-27T09:12:02.804Z,7.80
2023-01-27T09:13:03.357Z,7.80
2023-01-27T09:14:02.980Z,7.80
2023-01-27T09:15:03.237Z,7.80
2023-01-27T09:16:03.255Z,8.10
2023-01-27T09:17:02.356Z,8.10
2023-01-27T09:18:02.645Z,8.10
2023-01-27T09:19:02.552Z,8.10
2023-01-27T09:20:02.468Z,8.10
2023-01-27T09:21:02.887Z,7.40
2023-01-27T09:22:02.959Z,7.40
2023-01-27T09:23:03.474Z,7.40
2023-01-27T09:24:03.447Z,7.40
2023-01-27T09:25:03.231Z,7.40
2023-01-27T09:26:03.015Z,6.80
2023-01-27T09:27:02.248Z,6.80
2023-01-27T09:28:02.334Z,6.80
2023-01-27T09:29:02.134Z,6.80
2023-01-27T09:30:02.653Z,6.80
2023-01-27T09:31:02.684Z,7.00
2023-01-27T09:32:02.441Z,7.00
2023-01-27T09:33:02.362Z,7.00
2023-01-27T09:34:02.880Z,7.00
2023-01-27T09:35:02.695Z,7.00
2023-01-27T09:36:02.865Z,7.20
2023-01-27T09:37:02.538Z,7.20
2023-01-27T09:38:02.554Z,7.20
2023-01-27T09:39:02.484Z,7.20
2023-01-27T09:40:02.426Z,7.20
2023-01-27T09:41:02.991Z,6.30
2023-01-27T09:42:02.714Z,6.30
2023-01-27T09:43:02.587Z,6.30
2023-01-27T09:44:02.577Z,6.30
2023-01-27T09:45:02.570Z,6.30
2023-01-27T09:46:02.560Z,6.60
2023-01-27T09:47:02.220Z,6.60
2023-01-27T09:48:02.212Z,6.60
2023-01-27T09:49:02.184Z,6.60
2023-01-27T09:50:02.083Z,6.60
2023-01-27T09:51:04.094Z,5.60
2023-01-27T09:52:02.432Z,5.60
2023-01-27T09:53:02.277Z,5.60
2023-01-27T09:54:02.251Z,5.60
2023-01-27T09:55:02.862Z,5.60
2023-01-27T09:56:02.735Z,5.90
2023-01-27T09:57:02.635Z,5.90
2023-01-27T09:58:02.503Z,5.90
2023-01-27T09:59:03.051Z,5.90
2023-01-27T10:00:02.593Z,5.90
2023-01-27T10:01:02.959Z,6.10
2023-01-27T10:02:02.885Z,6.10
2023-01-27T10:03:02.769Z,6.10
2023-01-27T10:04:03.305Z,6.10
2023-01-27T10:05:03.015Z,6.10
2023-01-27T10:06:02.902Z,5.60
2023-01-27T10:07:03.441Z,5.60
2023-01-27T10:08:03.378Z,5.60
2023-01-27T10:09:03.318Z,5.60
2023-01-27T10:10:03.259Z,5.60
2023-01-27T10:11:03.815Z,6.00
2023-01-27T10:12:02.764Z,6.00
2023-01-27T10:13:02.575Z,6.00
2023-01-27T10:14:03.125Z,6.00
2023-01-27T10:15:02.849Z,6.00
2023-01-27T10:16:02.630Z,3.00
2023-01-27T10:17:03.265Z,3.00
2023-01-27T10:18:03.229Z,3.00
2023-01-27T10:19:03.097Z,3.00
2023-01-27T10:20:03.164Z,3.00
2023-01-27T10:21:03.124Z,2.30
2023-01-27T10:22:02.787Z,2.30
2023-01-27T10:23:02.702Z,2.30
2023-01-27T10:24:02.719Z,2.30
2023-01-27T10:25:02.564Z,2.30
2023-01-27T10:26:03.143Z,2.30
2023-01-27T10:27:02.753Z,2.30
2023-01-27T10:28:02.692Z,2.30
2023-01-27T10:29:02.891Z,2.30
2023-01-27T10:30:02.654Z,2.30
2023-01-27T10:31:02.627Z,1.70
2023-01-27T10:32:03.313Z,1.70
2023-01-27T10:33:03.030Z,1.70
2023-01-27T10:34:03.674Z,1.70
2023-01-27T10:35:03.349Z,1.70
2023-01-27T10:36:03.212Z,1.60
2023-01-27T10:37:02.851Z,1.60
2023-01-27T10:38:02.804Z,1.60
2023-01-27T10:39:02.618Z,1.60
2023-01-27T10:40:03.157Z,1.60
2023-01-27T10:41:02.762Z,1.60
2023-01-27T10:42:03.406Z,1.60
2023-01-27T10:43:03.287Z,1.60
2023-01-27T10:44:03.421Z,1.60
2023-01-27T10:45:03.329Z,1.60
2023-01-27T10:46:03.343Z,1.00
2023-01-27T10:47:03.073Z,1.00
2023-01-27T10:48:03.014Z,1.00
2023-01-27T10:49:02.732Z,1.00
2023-01-27T10:50:03.171Z,1.00
2023-01-27T10:51:03.054Z,0.90
2023-01-27T10:52:02.729Z,0.90
2023-01-27T10:53:02.482Z,0.90
2023-01-27T10:54:02.417Z,0.90
2023-01-27T10:55:02.247Z,0.90
2023-01-27T10:56:02.865Z,1.00
2023-01-27T10:57:03.126Z,1.00
2023-01-27T10:58:02.973Z,1.00
2023-01-27T10:59:03.073Z,1.00
2023-01-27T11:00:35.717Z,1.00
2023-01-27T11:01:20.495Z,1.00
2023-01-27T11:02:02.648Z,1.00
2023-01-27T11:03:02.334Z,1.00
2023-01-27T11:04:02.329Z,1.00
2023-01-27T11:05:02.321Z,1.00
2023-01-27T11:06:02.261Z,1.00
2023-01-27T11:07:02.801Z,1.00
2023-01-27T11:08:02.773Z,1.00
2023-01-27T11:09:02.646Z,1.00
2023-01-27T11:10:02.576Z,1.00
2023-01-27T11:11:02.495Z,1.00
2023-01-27T11:12:03.023Z,1.00
2023-01-27T11:13:02.707Z,1.00
2023-01-27T11:14:02.528Z,1.00
2023-01-27T11:15:02.787Z,1.00
2023-01-27T11:16:02.976Z,1.10
2023-01-27T11:17:02.590Z,1.10
2023-01-27T11:18:02.111Z,1.10
2023-01-27T11:19:02.055Z,1.10
2023-01-27T11:20:02.567Z,1.10
2023-01-27T11:21:02.257Z,1.40
2023-01-27T11:22:08.076Z,1.40
2023-01-27T11:23:02.620Z,1.40
2023-01-27T11:24:02.556Z,1.40
2023-01-27T11:25:02.380Z,1.40
2023-01-27T11:26:02.490Z,1.30
2023-01-27T11:27:03.135Z,1.30
2023-01-27T11:28:02.803Z,1.30
2023-01-27T11:29:02.557Z,1.30
2023-01-27T11:30:03.052Z,1.30
2023-01-27T11:31:02.994Z,1.40
2023-01-27T11:32:02.659Z,1.40
2023-01-27T11:33:02.378Z,1.40
2023-01-27T11:34:02.195Z,1.40
2023-01-27T11:35:01.992Z,1.40
2023-01-27T11:36:02.534Z,1.20
2023-01-27T11:37:02.941Z,1.20
2023-01-27T11:38:14.852Z,1.20
2023-01-27T11:39:02.372Z,1.20
2023-01-27T11:40:02.816Z,1.20
2023-01-27T11:41:02.716Z,1.40
2023-01-27T11:42:01.580Z,1.40
2023-01-27T11:43:02.114Z,1.40
2023-01-27T11:44:02.037Z,1.40
2023-01-27T11:45:01.826Z,1.40
2023-01-27T11:46:01.650Z,1.50
2023-01-27T11:47:01.576Z,1.50
2023-01-27T11:48:02.149Z,1.50
2023-01-27T11:51:01.924Z,1.50
2023-01-27T11:52:01.878Z,1.50
2023-01-27T11:53:02.414Z,1.50
2023-01-27T11:54:02.214Z,1.50
2023-01-27T11:55:02.097Z,1.50
2023-01-27T11:56:01.887Z,1.30
2023-01-27T11:57:02.348Z,1.30
2023-01-27T11:58:02.915Z,1.30
2023-01-27T11:59:02.426Z,1.30
2023-01-27T12:00:02.941Z,1.30
2023-01-27T12:01:02.582Z,1.50
2023-01-27T12:02:02.385Z,1.50
2023-01-27T12:03:02.853Z,1.50
2023-01-27T12:04:02.852Z,1.50
2023-01-27T12:05:02.695Z,1.50
2023-01-27T12:06:02.626Z,1.60
2023-01-27T12:07:02.389Z,1.60
2023-01-27T12:08:03.035Z,1.60
2023-01-27T12:09:02.677Z,1.60
2023-01-27T12:10:02.566Z,1.60
2023-01-27T12:11:02.952Z,1.90
2023-01-27T12:12:02.829Z,1.90
2023-01-27T12:13:02.345Z,1.90
2023-01-27T12:14:02.126Z,1.90
2023-01-27T12:15:02.064Z,1.90
2023-01-27T12:16:02.003Z,2.00
2023-01-27T12:17:02.331Z,2.00
2023-01-27T12:18:02.880Z,2.00
2023-01-27T12:19:02.687Z,2.00
2023-01-27T12:20:02.629Z,2.00
2023-01-27T12:21:02.528Z,1.80
2023-01-27T12:22:03.068Z,1.80
2023-01-27T12:23:02.593Z,1.80
2023-01-27T12:24:02.564Z,1.80
2023-01-27T12:25:02.501Z,1.80
2023-01-27T12:26:02.573Z,2.20
2023-01-27T12:27:02.463Z,2.20
2023-01-27T12:28:02.087Z,2.20
2023-01-27T12:29:02.249Z,2.20
2023-01-27T12:30:02.175Z,2.20
2023-01-27T12:31:02.085Z,2.60
2023-01-27T12:32:02.622Z,2.60
2023-01-27T12:33:02.220Z,2.60
2023-01-27T12:34:02.157Z,2.60
2023-01-27T12:35:01.954Z,2.60
2023-01-27T12:36:02.536Z,2.90
2023-01-27T12:37:02.044Z,2.90
2023-01-27T12:38:02.478Z,2.90
2023-01-27T12:39:02.423Z,2.90
2023-01-27T12:40:03.116Z,2.90
2023-01-27T12:41:02.757Z,2.10
2023-01-27T12:42:02.737Z,2.10
2023-01-27T12:43:02.530Z,2.10
2023-01-27T12:44:02.444Z,2.10
2023-01-27T12:45:02.369Z,2.10
2023-01-27T12:46:02.849Z,1.80
2023-01-27T12:47:02.790Z,1.80
2023-01-27T12:48:02.690Z,1.80
2023-01-27T12:51:02.535Z,2.10
2023-01-27T12:52:02.496Z,2.10
2023-01-27T12:53:02.168Z,2.10
2023-01-27T12:54:01.891Z,2.10
2023-01-27T12:55:02.452Z,2.10
2023-01-27T12:56:02.133Z,1.90
2023-01-27T12:57:01.979Z,1.90
2023-01-27T12:58:02.459Z,1.90
2023-01-27T12:59:02.386Z,1.90
2023-01-27T13:00:02.332Z,1.90
2023-01-27T13:01:02.754Z,1.60
2023-01-27T13:02:02.829Z,1.60
2023-01-27T13:03:03.180Z,1.60
2023-01-27T13:04:03.174Z,1.60
2023-01-27T13:05:03.547Z,1.60
2023-01-27T13:06:03.197Z,1.80
2023-01-27T13:07:03.104Z,1.80
2023-01-27T13:08:02.716Z,1.80